KSWF

Stewart International Airport

New York, New York, USA
KSWF 192335Z 2000/2106 VRB04KT P6SM BKN030 FM200300 VRB04KT P6SM BKN010 FM201500 VRB04KT P6SM BKN030 FM201700 09005KT P6SM SCT040 FM202100 15005KT P6SM SCT040 SCT150 AMD NOT SKED
Issued Valid From Valid To
Sep-19 @ 23:35 UTC
(an hour ago)
Sep-20 @ 00:00 UTC
(43 minutes ago)
Sep-21 @ 06:00 UTC
(-1 days ago)
Sep-20 @ 00:00 to Sep-20 @ 03:00
KSWF 192335Z 2000/2106 VRB04KT P6SM BKN030
Wind Visibility Clouds
Variable at 4 knots Greater than 6 miles
  • Broken at 3,000' AGL
From Sep-20 @ 03:00 to Sep-20 @ 15:00
FM200300 VRB04KT P6SM BKN010
Wind Visibility Clouds
Variable at 4 knots Greater than 6 miles
  • Broken at 1,000' AGL
From Sep-20 @ 15:00 to Sep-20 @ 17:00
FM201500 VRB04KT P6SM BKN030
Wind Visibility Clouds
Variable at 4 knots Greater than 6 miles
  • Broken at 3,000' AGL
From Sep-20 @ 17:00 to Sep-20 @ 21:00
FM201700 09005KT P6SM SCT040
Wind Visibility Clouds
90° at 5 knots Greater than 6 miles
  • Scattered at 4,000' AGL
From Sep-20 @ 21:00 to Sep-21 @ 06:00
FM202100 15005KT P6SM SCT040 SCT150 AMD NOT SKED
Wind Visibility Clouds
150° at 5 knots Greater than 6 miles
  • Scattered at 4,000' AGL
  • Scattered at 15,000' AGL
KSWF 192335Z 2000/2106 VRB04KT P6SM BKN030 FM200300 VRB04KT P6SM BKN010 FM201500 VRB04KT P6SM BKN030 FM201700 09005KT P6SM SCT040 FM202100 15005KT P6SM SCT040 SCT150 AMD NOT SKED
Issued Sep-19 @ 23:35 UTC
(an hour ago)
Valid From Sep-20 @ 00:00 UTC
(43 minutes ago)
Valid To Sep-21 @ 06:00 UTC
(-1 days ago)
Sep-20 @ 00:00 - Sep-20 @ 03:00
Wind Visibility
Variable at 4 knots Greater than 6 miles
Clouds
  • Broken at 3,000' AGL
From Sep-20 @ 03:00 - Sep-20 @ 15:00
Wind Visibility
Variable at 4 knots Greater than 6 miles
Clouds
  • Broken at 1,000' AGL
From Sep-20 @ 15:00 - Sep-20 @ 17:00
Wind Visibility
Variable at 4 knots Greater than 6 miles
Clouds
  • Broken at 3,000' AGL
From Sep-20 @ 17:00 - Sep-20 @ 21:00
Wind Visibility
90° at 5 knots Greater than 6 miles
Clouds
  • Scattered at 4,000' AGL
From Sep-20 @ 21:00 - Sep-21 @ 06:00
Wind Visibility
150° at 5 knots Greater than 6 miles
Clouds
  • Scattered at 4,000' AGL
  • Scattered at 15,000' AGL